Time;durP1;ratioP1;P1;durP2;ratioP2;P2;SDS_P1;SDS_P2;PMS_P1;PMS_P2;Temp;Humidity;BMP_temperature;BMP_pressure;BME280_temperature;BME280_humidity;BME280_pressure;Samples;Min_cycle;Max_cycle;Signal;HPM_P1;HPM_P2
2022/11/21 00:00:36;;;;;;;;;4.75;4.25;;;;;9.66;65.21;100691.84;6340409;22;45215;-62
2022/11/21 00:03:01;;;;;;;;;4.50;3.50;;;;;9.63;65.24;100698.00;6342321;22;45699;-62
2022/11/21 00:05:28;;;;;;;;;8.25;6.00;;;;;9.58;65.19;100699.81;6341964;22;45249;-61
2022/11/21 00:07:54;;;;;;;;;11.75;6.00;;;;;9.56;65.43;100699.00;6341730;22;45322;-61
2022/11/21 00:10:20;;;;;;;;;5.50;4.25;;;;;9.56;65.33;100710.34;6341812;22;45249;-61
2022/11/21 00:12:46;;;;;;;;;5.75;4.25;;;;;9.54;65.35;100703.38;6341820;22;45217;-61
2022/11/21 00:15:11;;;;;;;;;10.00;8.00;;;;;9.54;65.47;100706.00;6342121;22;45229;-61
2022/11/21 00:17:36;;;;;;;;;7.50;5.50;;;;;9.53;65.43;100701.63;6342165;22;45289;-61
2022/11/21 00:20:02;;;;;;;;;7.00;7.00;;;;;9.49;65.31;100682.41;6341664;22;45306;-61
2022/11/21 00:22:27;;;;;;;;;9.25;4.25;;;;;9.46;65.40;100679.84;6341295;22;45899;-61
2022/11/21 00:24:53;;;;;;;;;7.75;4.25;;;;;9.47;65.32;100685.94;6342048;22;45241;-60
2022/11/21 00:27:18;;;;;;;;;4.75;3.25;;;;;9.42;65.38;100676.38;6341932;22;45261;-61
2022/11/21 00:29:43;;;;;;;;;10.25;3.50;;;;;9.42;65.48;100676.38;6341980;22;45280;-61
2022/11/21 00:32:09;;;;;;;;;4.50;2.50;;;;;9.42;65.26;100665.88;6339966;22;46366;-61
2022/11/21 00:34:34;;;;;;;;;6.25;5.00;;;;;9.38;65.77;100658.94;6341326;22;45139;-62
2022/11/21 00:36:59;;;;;;;;;6.50;5.00;;;;;9.36;65.74;100649.34;6342379;22;45361;-61
2022/11/21 00:39:25;;;;;;;;;7.75;4.25;;;;;9.34;65.43;100648.50;6341616;22;45319;-62
2022/11/21 00:41:50;;;;;;;;;4.50;3.75;;;;;9.30;65.39;100642.41;6341904;22;45105;-61
2022/11/21 00:44:15;;;;;;;;;204.50;178.50;;;;;9.27;65.64;100626.72;6342088;22;52180;-61
2022/11/21 00:46:41;;;;;;;;;9.25;8.25;;;;;9.25;65.86;100636.34;6341065;22;45728;-61
2022/11/21 00:49:06;;;;;;;;;6.25;3.00;;;;;9.24;65.51;100630.25;6341542;22;45469;-61
2022/11/21 00:51:31;;;;;;;;;8.50;6.75;;;;;9.25;65.46;100631.09;6341307;22;50472;-61
2022/11/21 00:53:57;;;;;;;;;6.75;6.00;;;;;9.24;65.45;100630.25;6342132;22;45159;-61
2022/11/21 00:56:22;;;;;;;;;6.00;5.25;;;;;9.21;65.51;100630.25;6341909;22;45139;-61
2022/11/21 00:58:48;;;;;;;;;7.75;5.00;;;;;9.20;65.73;100623.28;6341181;22;45145;-61
2022/11/21 01:01:14;;;;;;;;;8.50;7.25;;;;;9.22;65.49;100626.75;6341856;22;45186;-62
2022/11/21 01:03:40;;;;;;;;;11.00;6.75;;;;;9.22;65.40;100629.38;6339606;22;45226;-61
2022/11/21 01:06:08;;;;;;;;;4.50;4.50;;;;;9.24;65.82;100624.13;6339733;22;45378;-61
2022/11/21 01:08:36;;;;;;;;;7.75;5.75;;;;;9.24;65.76;100611.00;6339735;22;45306;-61
2022/11/21 01:11:06;;;;;;;;;8.75;4.75;;;;;9.26;65.83;100620.59;6341360;22;46208;-60
2022/11/21 01:13:33;;;;;;;;;7.25;4.75;;;;;9.26;65.53;100611.88;6341905;22;45419;-60
2022/11/21 01:16:19;;;;;;;;;7.50;5.75;;;;;9.30;65.49;100608.31;6341917;22;45215;-60
2022/11/21 01:18:44;;;;;;;;;9.00;7.75;;;;;9.28;65.60;100607.47;6340909;22;45394;-61
2022/11/21 01:21:19;;;;;;;;;10.75;4.00;;;;;9.30;65.61;100600.44;6339404;22;45576;-61
2022/11/21 01:23:46;;;;;;;;;8.25;6.75;;;;;9.32;65.53;100605.69;6341436;22;45167;-61
2022/11/21 01:26:14;;;;;;;;;10.00;7.00;;;;;9.33;65.28;100603.03;6341727;22;45402;-60
2022/11/21 01:28:40;;;;;;;;;7.75;6.25;;;;;9.32;65.60;100600.44;6341573;22;45245;-61
2022/11/21 01:31:14;;;;;;;;;12.50;6.00;;;;;9.33;65.65;100603.03;6340625;22;45340;-61
2022/11/21 01:33:40;;;;;;;;;6.25;6.00;;;;;9.35;65.34;100606.50;6341719;22;45308;-61
2022/11/21 01:36:19;;;;;;;;;8.50;6.75;;;;;9.34;65.58;100604.75;6339536;22;45336;-61
2022/11/21 01:38:50;;;;;;;;;9.50;7.50;;;;;9.34;65.48;100590.81;6339346;22;45380;-61
2022/11/21 01:41:18;;;;;;;;;7.50;5.75;;;;;9.32;65.68;100584.69;6341628;22;45482;-61
2022/11/21 01:43:46;;;;;;;;;6.75;5.50;;;;;9.30;65.64;100574.22;6339629;22;45274;-61
2022/11/21 01:46:14;;;;;;;;;7.25;6.00;;;;;9.35;65.48;100577.66;6341482;22;45280;-61
2022/11/21 01:49:04;;;;;;;;;9.00;6.75;;;;;9.35;65.93;100577.66;6339049;22;45434;-61
2022/11/21 01:51:43;;;;;;;;;3.75;3.75;;;;;9.38;65.83;100582.00;6339526;22;47156;-61
2022/11/21 01:54:15;;;;;;;;;11.00;7.25;;;;;9.38;65.69;100569.78;6341171;22;45104;-61
2022/11/21 01:56:47;;;;;;;;;9.25;5.75;;;;;9.33;65.61;100547.09;6341606;22;45237;-61
2022/11/21 01:59:20;;;;;;;;;9.25;6.50;;;;;9.35;65.47;100559.31;6340935;22;45195;-61
2022/11/21 02:01:49;;;;;;;;;6.50;4.00;;;;;9.30;65.49;100540.13;6340118;22;45286;-61
2022/11/21 02:04:14;;;;;;;;;8.75;5.00;;;;;9.32;65.63;100543.63;6340917;22;45150;-61
2022/11/21 02:06:40;;;;;;;;;7.50;6.25;;;;;9.31;65.61;100539.25;6341170;22;45134;-61
2022/11/21 02:09:06;;;;;;;;;6.00;5.00;;;;;9.26;65.65;100541.91;6340759;22;45146;-61
2022/11/21 02:11:38;;;;;;;;;5.50;5.00;;;;;9.24;65.52;100545.44;6341513;22;45189;-61
2022/11/21 02:14:04;;;;;;;;;7.25;4.25;;;;;9.21;65.70;100540.25;6341651;22;45356;-61
2022/11/21 02:16:30;;;;;;;;;7.00;5.25;;;;;9.18;66.03;100537.66;6341220;22;45164;-61
2022/11/21 02:18:55;;;;;;;;;6.75;6.50;;;;;9.10;65.98;100535.13;6341100;22;45395;-62
2022/11/21 02:21:37;;;;;;;;;4.00;3.50;;;;;9.10;65.72;100532.50;6340369;22;45177;-61
2022/11/21 02:24:23;;;;;;;;;8.00;5.50;;;;;9.08;65.99;100535.16;6341887;22;45319;-61
2022/11/21 02:26:49;;;;;;;;;11.00;5.50;;;;;9.05;66.02;100536.94;6341638;22;45439;-61
2022/11/21 02:29:15;;;;;;;;;10.25;6.25;;;;;9.05;65.96;100529.94;6341074;22;45154;-61
2022/11/21 02:31:40;;;;;;;;;9.50;5.75;;;;;9.04;65.34;100530.84;6341447;22;46135;-61
2022/11/21 02:34:05;;;;;;;;;14.50;10.50;;;;;9.03;65.98;100522.97;6341316;22;45126;-61
2022/11/21 02:36:46;;;;;;;;;13.75;10.25;;;;;9.03;65.80;100513.38;6341377;22;45198;-62
2022/11/21 02:39:24;;;;;;;;;6.50;4.75;;;;;9.03;65.93;100515.09;6340964;22;45468;-61
2022/11/21 02:42:13;;;;;;;;;9.50;4.75;;;;;9.02;65.69;100511.63;6340669;22;46386;-61
2022/11/21 02:44:56;;;;;;;;;13.50;8.50;;;;;9.00;65.94;100508.16;6341190;22;45113;-61
2022/11/21 02:47:23;;;;;;;;;7.50;6.25;;;;;9.01;66.01;100509.03;6341530;22;45093;-61
2022/11/21 02:50:00;;;;;;;;;7.50;6.00;;;;;9.03;65.89;100507.25;6340340;22;45430;-61
2022/11/21 02:52:26;;;;;;;;;7.50;7.50;;;;;9.01;65.91;100501.16;6341282;22;45324;-61
2022/11/21 02:54:51;;;;;;;;;7.25;7.25;;;;;9.03;65.83;100497.63;6341186;22;45179;-61
2022/11/21 02:57:16;;;;;;;;;10.00;7.00;;;;;9.04;66.03;100494.13;6341417;22;45233;-61
2022/11/21 02:59:42;;;;;;;;;4.75;4.00;;;;;9.00;65.80;100484.56;6341078;22;45129;-61
2022/11/21 03:02:07;;;;;;;;;8.00;5.25;;;;;9.03;65.90;100486.28;6341016;22;46323;-61
2022/11/21 03:04:32;;;;;;;;;7.00;4.50;;;;;9.05;65.46;100485.38;6340814;22;45279;-61
2022/11/21 03:06:58;;;;;;;;;6.50;6.00;;;;;9.07;65.74;100477.50;6341579;22;45168;-61
2022/11/21 03:09:23;;;;;;;;;5.25;5.25;;;;;9.01;65.72;100461.84;6340995;22;45290;-61
2022/11/21 03:11:48;;;;;;;;;11.75;10.25;;;;;9.01;66.01;100474.97;6341963;22;55561;-62
2022/11/21 03:14:14;;;;;;;;;9.50;6.00;;;;;9.00;65.68;100476.69;6340486;22;45274;-61
2022/11/21 03:16:39;;;;;;;;;12.50;10.25;;;;;8.98;66.00;100478.47;6342568;22;45249;-61
2022/11/21 03:19:04;;;;;;;;;8.25;7.00;;;;;9.00;65.91;100484.56;6341811;22;45123;-61
2022/11/21 03:21:29;;;;;;;;;13.50;8.50;;;;;9.02;65.92;100479.28;6342218;22;45275;-61
2022/11/21 03:23:55;;;;;;;;;13.75;10.50;;;;;8.99;65.95;100469.72;6342146;22;45085;-61
2022/11/21 03:26:20;;;;;;;;;11.00;8.25;;;;;9.01;65.88;100456.59;6342620;22;45170;-61
2022/11/21 03:28:45;;;;;;;;;8.75;6.00;;;;;9.01;65.93;100449.59;6341719;22;45475;-61
2022/11/21 03:31:11;;;;;;;;;14.00;9.50;;;;;9.03;65.91;100450.47;6342408;22;46369;-61
2022/11/21 03:33:36;;;;;;;;;8.50;7.50;;;;;9.05;65.79;100440.81;6342485;22;45172;-61
2022/11/21 03:36:02;;;;;;;;;14.00;9.75;;;;;9.04;66.18;100427.72;6313993;22;45778;-61
2022/11/21 03:38:27;;;;;;;;;10.75;9.75;;;;;9.05;66.01;100426.84;6340726;22;45509;-61
2022/11/21 03:40:52;;;;;;;;;11.00;8.25;;;;;9.04;65.75;100418.13;6342277;22;45265;-61
2022/11/21 03:43:17;;;;;;;;;11.25;9.75;;;;;9.02;65.92;100412.03;6342148;22;49118;-61
2022/11/21 03:45:46;;;;;;;;;7.50;4.00;;;;;9.01;65.90;100407.66;6342118;22;45937;-60
2022/11/21 03:48:11;;;;;;;;;11.25;6.25;;;;;9.03;66.03;100405.91;6341874;22;45192;-61
2022/11/21 03:50:36;;;;;;;;;7.00;6.00;;;;;9.01;65.92;100410.28;6341252;22;46132;-61
2022/11/21 03:53:02;;;;;;;;;14.00;8.50;;;;;8.93;66.20;100399.03;6342013;22;51154;-61
2022/11/21 03:55:27;;;;;;;;;10.00;7.00;;;;;8.98;66.20;100412.97;6340557;22;45553;-60
2022/11/21 03:57:52;;;;;;;;;12.50;11.75;;;;;8.99;66.12;100412.03;6341672;22;55556;-61
2022/11/21 04:00:18;;;;;;;;;16.00;10.25;;;;;9.00;65.82;100408.53;6341962;22;45178;-61
2022/11/21 04:02:43;;;;;;;;;14.00;7.75;;;;;9.00;66.01;100413.78;6342383;22;45187;-61
2022/11/21 04:05:09;;;;;;;;;6.75;5.75;;;;;8.99;66.24;100396.31;6341853;22;45242;-61
2022/11/21 04:07:34;;;;;;;;;10.25;6.50;;;;;8.98;65.89;100388.47;6342046;22;45223;-61
2022/11/21 04:09:59;;;;;;;;;10.00;5.50;;;;;8.95;66.00;100378.91;6341674;22;50597;-61
2022/11/21 04:12:24;;;;;;;;;7.50;6.50;;;;;8.97;66.26;100369.28;6341844;22;47103;-61
2022/11/21 04:14:50;;;;;;;;;10.50;6.00;;;;;8.87;66.11;100342.34;6342288;22;45419;-61
2022/11/21 04:17:15;;;;;;;;;7.00;5.00;;;;;8.94;66.27;100353.59;6342081;22;45158;-62
2022/11/21 04:19:40;;;;;;;;;11.00;10.00;;;;;8.93;66.06;100352.72;6341260;22;45186;-60
2022/11/21 04:22:06;;;;;;;;;11.50;11.00;;;;;8.90;66.00;100342.28;6341882;22;45092;-61
2022/11/21 04:24:31;;;;;;;;;7.50;6.50;;;;;8.90;66.06;100349.28;6342239;22;45198;-60
2022/11/21 04:26:57;;;;;;;;;13.00;8.50;;;;;8.87;66.02;100334.47;6340339;22;45555;-60
2022/11/21 04:29:22;;;;;;;;;11.75;8.25;;;;;8.86;65.94;100334.50;6341737;22;45246;-60
2022/11/21 04:31:47;;;;;;;;;11.00;8.50;;;;;8.85;65.89;100330.13;6342236;22;45092;-60
2022/11/21 04:34:12;;;;;;;;;9.25;8.75;;;;;8.85;65.91;100327.53;6341639;22;46911;-60
2022/11/21 04:36:38;;;;;;;;;11.75;8.50;;;;;8.83;65.92;100326.66;6342016;22;45239;-60
2022/11/21 04:39:03;;;;;;;;;11.50;10.00;;;;;8.78;66.17;100319.75;6341548;22;46235;-60
2022/11/21 04:41:28;;;;;;;;;7.25;5.50;;;;;8.72;66.22;100314.56;6341174;22;45149;-61
2022/11/21 04:43:54;;;;;;;;;7.00;5.00;;;;;8.71;66.09;100319.84;6342329;22;45377;-61
2022/11/21 04:46:19;;;;;;;;;14.50;8.00;;;;;8.67;65.99;100305.91;6340130;22;45299;-60
2022/11/21 04:48:44;;;;;;;;;8.00;6.00;;;;;8.66;65.84;100316.41;6341351;22;45203;-61
2022/11/21 04:51:10;;;;;;;;;9.00;6.75;;;;;8.64;66.15;100312.94;6341774;22;45273;-60
2022/11/21 04:53:35;;;;;;;;;6.25;6.00;;;;;8.60;66.21;100304.25;6342080;22;45171;-61
2022/11/21 04:56:05;;;;;;;;;10.75;7.00;;;;;8.57;65.90;100297.31;6339555;22;45429;-60
2022/11/21 04:58:30;;;;;;;;;4.25;4.25;;;;;8.52;65.95;100287.78;6341150;22;47161;-60
2022/11/21 05:00:55;;;;;;;;;14.00;10.00;;;;;8.44;66.14;100275.63;6341953;22;45217;-61
2022/11/21 05:03:21;;;;;;;;;4.75;4.75;;;;;8.46;66.18;100270.38;6341830;22;45384;-61
2022/11/21 05:05:46;;;;;;;;;10.50;6.25;;;;;8.48;66.19;100267.75;6341650;22;45163;-61
2022/11/21 05:08:12;;;;;;;;;17.00;7.25;;;;;8.45;66.17;100261.66;6339652;22;46043;-61
2022/11/21 05:13:19;;;;;;;;;10.75;8.00;;;;;8.43;65.92;100250.31;6341866;22;45243;-61
2022/11/21 05:13:23;;;;;;;;;10.00;7.50;;;;;8.42;66.55;100250.34;6341328;22;45439;-61
2022/11/21 05:15:50;;;;;;;;;10.00;6.75;;;;;8.38;66.29;100246.91;6341674;22;45184;-62
2022/11/21 05:18:17;;;;;;;;;14.00;8.00;;;;;8.33;66.16;100237.34;6341361;22;46339;-63
2022/11/21 05:20:43;;;;;;;;;6.75;6.75;;;;;8.33;66.16;100238.22;6340897;22;45211;-62
2022/11/21 05:23:08;;;;;;;;;13.00;6.00;;;;;8.32;66.17;100236.50;6341915;22;45514;-62
2022/11/21 05:25:33;;;;;;;;;13.75;10.00;;;;;8.32;66.02;100238.25;6341473;22;50226;-62
2022/11/21 05:27:59;;;;;;;;;9.75;8.25;;;;;8.28;66.24;100234.81;6341457;22;45190;-62
2022/11/21 05:30:24;;;;;;;;;13.25;10.00;;;;;8.26;66.33;100240.06;6341738;22;45347;-62
2022/11/21 05:32:49;;;;;;;;;5.00;5.00;;;;;8.19;66.23;100242.75;6339537;22;45368;-61
2022/11/21 05:35:15;;;;;;;;;14.75;8.00;;;;;8.17;66.39;100255.03;6341055;22;45387;-61
2022/11/21 05:37:40;;;;;;;;;12.75;8.50;;;;;8.15;66.19;100255.06;6341724;22;45952;-61
2022/11/21 05:40:06;;;;;;;;;6.50;5.50;;;;;8.05;66.42;100243.81;6341411;22;45710;-62
2022/11/21 05:45:15;;;;;;;;;12.50;10.50;;;;;8.05;66.54;100254.28;6341620;22;45175;-61
2022/11/21 05:47:41;;;;;;;;;5.00;3.75;;;;;8.05;66.54;100242.94;6341017;22;46006;-61
2022/11/21 05:50:06;;;;;;;;;12.00;9.00;;;;;8.06;66.87;100240.31;6340453;22;45176;-62
2022/11/21 05:52:32;;;;;;;;;13.50;9.50;;;;;8.05;66.70;100230.72;6341930;22;45105;-62
2022/11/21 05:54:58;;;;;;;;;12.25;9.75;;;;;8.05;66.61;100217.66;6341354;22;45207;-61
2022/11/21 05:57:24;;;;;;;;;12.75;7.25;;;;;8.07;66.71;100218.47;6341580;22;45168;-62
2022/11/21 05:59:49;;;;;;;;;13.00;11.00;;;;;8.08;66.58;100208.88;6340768;22;45405;-62
2022/11/21 06:04:59;;;;;;;;;15.75;10.00;;;;;7.97;66.85;100209.00;6341472;22;45365;-61
2022/11/21 06:07:24;;;;;;;;;9.00;7.50;;;;;7.99;66.89;100199.41;6341557;22;46698;-61
2022/11/21 06:09:49;;;;;;;;;12.75;11.00;;;;;7.95;66.77;100189.88;6340900;22;51437;-62
2022/11/21 06:12:15;;;;;;;;;13.75;11.25;;;;;7.97;66.91;100188.97;6339866;22;45314;-62
2022/11/21 06:14:40;;;;;;;;;9.75;9.00;;;;;7.99;66.84;100178.47;6341389;22;45328;-62
2022/11/21 06:17:05;;;;;;;;;15.25;12.00;;;;;7.94;67.09;100161.97;6341345;22;49951;-61
2022/11/21 06:19:30;;;;;;;;;14.50;13.00;;;;;7.98;67.08;100155.78;6340162;22;45344;-62
2022/11/21 06:21:56;;;;;;;;;16.00;13.00;;;;;7.98;66.75;100147.94;6341492;22;45387;-61
2022/11/21 06:24:21;;;;;;;;;16.25;12.50;;;;;7.99;66.79;100149.69;6340708;22;46261;-61
2022/11/21 06:26:46;;;;;;;;;10.75;10.75;;;;;8.00;66.93;100140.06;6341250;22;46189;-61
2022/11/21 06:29:12;;;;;;;;;13.50;13.50;;;;;8.01;66.99;100139.19;6341064;22;45264;-62
2022/11/21 06:31:37;;;;;;;;;19.50;14.50;;;;;7.97;66.92;100148.81;6341133;22;45231;-61
2022/11/21 06:34:03;;;;;;;;;12.75;11.50;;;;;7.97;67.02;100141.88;6341385;22;45238;-62
2022/11/21 06:36:28;;;;;;;;;16.75;12.75;;;;;7.93;66.72;100141.91;6341543;22;45245;-62
2022/11/21 06:38:54;;;;;;;;;14.50;14.50;;;;;7.90;67.15;100134.09;6340972;22;45340;-62
2022/11/21 06:41:25;;;;;;;;;12.25;6.00;;;;;7.92;67.11;100127.97;6341446;22;45196;-62
2022/11/21 06:43:51;;;;;;;;;19.75;13.75;;;;;7.90;66.62;100128.84;6338887;22;45380;-61
2022/11/21 06:46:18;;;;;;;;;19.00;17.25;;;;;7.85;66.90;100125.44;6340765;22;46901;-61
2022/11/21 06:48:43;;;;;;;;;17.50;13.00;;;;;7.87;67.18;100127.13;6338978;22;45342;-62
2022/11/21 06:51:18;;;;;;;;;19.50;12.75;;;;;7.88;67.47;100125.41;6340870;22;45183;-61
2022/11/21 06:53:44;;;;;;;;;18.00;15.50;;;;;7.81;67.31;100130.72;6341151;22;45280;-61
2022/11/21 06:56:10;;;;;;;;;18.00;15.75;;;;;7.80;67.25;100136.81;6338997;22;46769;-61
2022/11/21 06:58:35;;;;;;;;;18.50;14.00;;;;;7.81;67.05;100125.47;6340853;22;45198;-61
2022/11/21 07:01:08;;;;;;;;;17.50;13.50;;;;;7.81;67.31;100119.38;6341382;22;45211;-61
2022/11/21 07:03:34;;;;;;;;;16.50;14.25;;;;;7.81;67.13;100107.19;6339158;22;45428;-61
2022/11/21 07:06:02;;;;;;;;;14.25;11.50;;;;;7.80;67.21;100094.97;6340734;22;45936;-62
2022/11/21 07:08:29;;;;;;;;;19.00;11.75;;;;;7.81;67.49;100086.25;6340590;22;45167;-61
2022/11/21 07:10:55;;;;;;;;;15.00;13.00;;;;;7.83;67.05;100074.91;6341212;22;45316;-61
2022/11/21 07:13:20;;;;;;;;;21.50;13.50;;;;;7.83;67.23;100062.69;6340810;22;45281;-61
2022/11/21 07:15:50;;;;;;;;;18.00;14.50;;;;;7.86;67.30;100046.94;6340753;22;46220;-61
2022/11/21 07:18:17;;;;;;;;;23.25;17.00;;;;;7.86;67.35;100039.09;6340418;22;45163;-61
2022/11/21 07:20:43;;;;;;;;;21.25;19.25;;;;;7.90;67.23;100034.66;6340536;22;45249;-61
2022/11/21 07:23:09;;;;;;;;;16.50;14.25;;;;;7.91;67.49;100032.06;6340499;22;45453;-61
2022/11/21 07:25:34;;;;;;;;;24.25;17.50;;;;;7.90;67.38;100032.06;6340833;22;46119;-61
2022/11/21 07:28:01;;;;;;;;;24.25;17.00;;;;;7.92;67.21;100019.81;6340119;22;45367;-61
2022/11/21 07:30:30;;;;;;;;;24.75;21.50;;;;;7.93;67.01;100011.09;6338880;22;45352;-61
2022/11/21 07:33:04;;;;;;;;;24.25;17.75;;;;;7.94;67.32;100005.81;6340199;22;45298;-61
2022/11/21 07:35:30;;;;;;;;;22.25;20.00;;;;;7.98;67.33;100010.13;6312079;22;45466;-61
2022/11/21 07:37:55;;;;;;;;;23.50;22.00;;;;;8.00;67.29;100004.88;6338799;22;45202;-61
2022/11/21 07:40:21;;;;;;;;;28.50;23.00;;;;;8.00;67.32;99998.78;6340369;22;45203;-61
2022/11/21 07:42:46;;;;;;;;;25.00;22.25;;;;;8.00;67.21;99997.03;6339470;22;45139;-60
2022/11/21 07:45:12;;;;;;;;;19.00;16.50;;;;;8.02;67.31;99991.78;6340522;22;45182;-61
2022/11/21 07:47:39;;;;;;;;;20.50;17.00;;;;;8.00;67.54;99981.34;6340817;22;45187;-62
2022/11/21 07:50:07;;;;;;;;;21.75;19.75;;;;;8.03;67.32;99973.41;6337756;22;45283;-61
2022/11/21 07:52:32;;;;;;;;;21.25;19.00;;;;;8.06;67.24;99975.13;6340262;22;45250;-61
2022/11/21 07:54:57;;;;;;;;;20.75;18.50;;;;;8.09;67.46;99975.94;6340656;22;45304;-61
2022/11/21 07:57:23;;;;;;;;;25.50;21.50;;;;;8.16;67.48;99973.22;6341888;22;45247;-61
2022/11/21 07:59:49;;;;;;;;;30.75;27.75;;;;;8.19;67.27;99974.03;6341605;22;45246;-61
2022/11/21 08:02:33;;;;;;;;;19.00;18.00;;;;;8.21;67.16;99955.69;6342116;22;45103;-61
2022/11/21 08:04:58;;;;;;;;;17.75;15.25;;;;;8.20;67.34;99939.13;6341728;22;46646;-61
2022/11/21 08:07:23;;;;;;;;;15.75;14.00;;;;;8.23;67.40;99925.97;6341456;22;45176;-61
2022/11/21 08:09:49;;;;;;;;;15.50;13.25;;;;;8.27;67.17;99908.47;6342139;22;45332;-61
2022/11/21 08:12:14;;;;;;;;;16.75;16.00;;;;;8.26;67.36;99906.75;6342109;22;45180;-61
2022/11/21 08:14:40;;;;;;;;;13.50;13.00;;;;;8.28;67.47;99894.50;6342142;22;45539;-61
2022/11/21 08:17:06;;;;;;;;;22.50;14.00;;;;;8.32;67.43;99900.53;6340009;22;45823;-61
2022/11/21 08:19:31;;;;;;;;;25.25;17.00;;;;;8.35;67.41;99895.25;6341343;22;45200;-61
2022/11/21 08:21:57;;;;;;;;;14.00;13.25;;;;;8.35;67.50;99893.50;6342270;22;45540;-62
2022/11/21 08:24:23;;;;;;;;;19.50;17.00;;;;;8.35;67.35;99890.00;6342099;22;45159;-61
2022/11/21 08:26:48;;;;;;;;;15.75;13.50;;;;;8.37;67.39;99890.84;6341998;22;45167;-61
2022/11/21 08:29:16;;;;;;;;;19.25;12.00;;;;;8.29;66.80;99880.53;6342270;22;45211;-61
2022/11/21 08:31:42;;;;;;;;;13.50;11.50;;;;;8.30;67.26;99870.03;6341702;22;45401;-61
2022/11/21 08:34:08;;;;;;;;;12.50;11.75;;;;;8.33;67.44;99876.06;6341494;22;46139;-61
2022/11/21 08:36:33;;;;;;;;;22.00;13.25;;;;;8.33;67.24;99889.16;6341985;22;45403;-61
2022/11/21 08:38:59;;;;;;;;;17.00;12.75;;;;;8.30;67.05;99895.31;6341969;22;45280;-61
2022/11/21 08:44:29;;;;;;;;;13.75;7.50;;;;;8.25;67.47;99890.19;6275989;22;46520;-61
2022/11/21 08:46:56;;;;;;;;;18.25;15.00;;;;;8.23;67.39;99891.09;6276430;22;45241;-61
2022/11/21 08:49:21;;;;;;;;;18.75;16.00;;;;;8.18;67.34;99893.78;6305935;22;45348;-61
2022/11/21 08:51:50;;;;;;;;;23.00;18.00;;;;;8.22;67.65;99892.00;6341827;22;45563;-61
2022/11/21 08:54:20;;;;;;;;;15.50;14.50;;;;;8.20;67.37;99889.41;6341445;22;47028;-61
2022/11/21 08:56:45;;;;;;;;;25.75;21.25;;;;;8.16;67.18;99877.25;6339679;22;45257;-61
2022/11/21 08:59:11;;;;;;;;;20.50;17.75;;;;;8.24;67.73;99887.59;6341023;22;45101;-61
2022/11/21 09:01:36;;;;;;;;;14.50;13.75;;;;;8.23;67.65;99870.16;6339614;22;45184;-61
2022/11/21 09:04:03;;;;;;;;;16.50;15.75;;;;;8.26;67.45;99859.63;6341466;22;45202;-61
2022/11/21 09:06:28;;;;;;;;;13.75;13.00;;;;;8.27;67.64;99861.34;6341117;22;45199;-61
2022/11/21 09:08:53;;;;;;;;;16.00;13.50;;;;;8.28;67.74;99850.84;6341116;22;45258;-61
2022/11/21 09:11:19;;;;;;;;;18.50;15.25;;;;;8.30;67.43;99835.09;6341648;22;45155;-61
2022/11/21 09:18:01;;;;;;;;;16.00;14.00;;;;;8.32;67.68;99811.53;6341859;22;45181;-61
2022/11/21 09:19:13;;;;;;;;;16.00;12.75;;;;;8.36;67.97;99803.56;6341171;22;45275;-60
2022/11/21 09:21:39;;;;;;;;;14.00;13.00;;;;;8.35;67.57;99812.34;6341997;22;45458;-61
2022/11/21 09:24:04;;;;;;;;;11.50;11.00;;;;;8.39;67.66;99816.63;6341631;22;45265;-61
2022/11/21 09:26:29;;;;;;;;;14.50;14.50;;;;;8.42;67.64;99813.06;6341547;22;45395;-61
2022/11/21 09:28:56;;;;;;;;;14.00;12.50;;;;;8.44;67.65;99804.28;6341476;22;45292;-60
2022/11/21 09:31:21;;;;;;;;;13.25;9.50;;;;;8.55;68.30;99805.84;6339849;22;45349;-61
2022/11/21 09:33:47;;;;;;;;;11.50;11.25;;;;;8.56;67.86;99792.72;6341614;22;46446;-61
2022/11/21 09:36:12;;;;;;;;;11.25;10.25;;;;;8.61;67.90;99783.00;6342040;22;45325;-61
2022/11/21 09:38:37;;;;;;;;;17.75;14.50;;;;;8.64;67.72;99776.88;6341935;22;45232;-61
2022/11/21 09:44:49;;;;;;;;;15.25;14.75;;;;;8.77;67.76;99756.50;6341495;22;45254;-61
2022/11/21 09:47:28;;;;;;;;;15.75;10.75;;;;;8.81;67.67;99742.44;6341888;22;45157;-61
2022/11/21 09:50:01;;;;;;;;;13.75;11.00;;;;;8.87;67.83;99733.59;6340988;22;45113;-61
2022/11/21 09:52:41;;;;;;;;;14.75;9.25;;;;;8.87;68.01;99710.00;6341297;22;45335;-61
2022/11/21 09:55:38;;;;;;;;;15.00;8.00;;;;;8.90;67.91;99709.91;6341595;22;45355;-61
2022/11/21 09:58:13;;;;;;;;;12.75;11.00;;;;;8.91;68.07;99688.91;6341364;22;45390;-61
2022/11/21 10:00:38;;;;;;;;;9.00;9.00;;;;;8.93;67.91;99691.47;6341755;22;45254;-61
2022/11/21 10:03:04;;;;;;;;;11.00;7.50;;;;;8.97;67.71;99684.41;6339638;22;45258;-62
2022/11/21 10:05:39;;;;;;;;;9.50;7.75;;;;;9.00;67.72;99684.34;6341531;22;45769;-61
2022/11/21 10:08:23;;;;;;;;;12.00;8.25;;;;;9.01;67.75;99665.13;6339562;22;45215;-61
2022/11/21 10:11:14;;;;;;;;;12.00;7.25;;;;;9.03;67.95;99668.53;6341331;22;45284;-61
2022/11/21 10:14:09;;;;;;;;;8.50;6.50;;;;;9.07;68.06;99659.72;6339294;22;45271;-61
2022/11/21 10:16:49;;;;;;;;;14.25;10.75;;;;;9.13;67.87;99648.22;6330394;22;45231;-61
2022/11/21 10:19:32;;;;;;;;;12.75;9.75;;;;;9.18;67.82;99630.59;6340504;22;45341;-61
2022/11/21 10:22:18;;;;;;;;;14.25;11.75;;;;;9.20;67.85;99621.78;6341587;22;45249;-61
2022/11/21 10:24:56;;;;;;;;;11.00;7.00;;;;;9.22;67.81;99596.41;6341172;22;45346;-61
2022/11/21 10:27:36;;;;;;;;;15.00;12.00;;;;;9.33;67.81;99598.72;6341365;22;45246;-62
2022/11/21 10:30:06;;;;;;;;;13.25;12.00;;;;;9.36;67.71;99593.41;6339299;22;46401;-62
2022/11/21 10:32:42;;;;;;;;;12.00;6.75;;;;;9.39;67.76;99592.47;6339551;22;45403;-61
2022/11/21 10:35:15;;;;;;;;;10.50;6.75;;;;;9.44;67.62;99583.56;6341147;22;45168;-62
2022/11/21 10:37:53;;;;;;;;;10.75;10.50;;;;;9.46;67.69;99575.66;6341228;22;45190;-61
2022/11/21 10:40:27;;;;;;;;;7.25;5.75;;;;;9.47;67.57;99579.13;6340478;22;45346;-62
2022/11/21 10:46:03;;;;;;;;;11.75;8.25;;;;;9.56;67.74;99563.16;6341386;22;45256;-61
2022/11/21 10:48:29;;;;;;;;;12.00;10.25;;;;;9.58;67.61;99556.97;6338521;22;45185;-61
2022/11/21 10:51:12;;;;;;;;;10.75;7.75;;;;;9.59;67.84;99550.78;6341116;22;45265;-62
2022/11/21 10:56:26;;;;;;;;;7.75;5.00;;;;;9.64;67.51;99539.31;6341047;22;45247;-61
2022/11/21 10:58:55;;;;;;;;;12.00;6.75;;;;;9.65;67.42;99518.28;6340655;22;45232;-61
2022/11/21 11:01:29;;;;;;;;;12.00;7.75;;;;;9.72;67.43;99513.69;6339042;22;45271;-61
2022/11/21 11:04:09;;;;;;;;;6.50;6.50;;;;;9.71;67.57;99510.25;6340672;22;45187;-61
2022/11/21 11:06:36;;;;;;;;;10.50;7.00;;;;;9.74;67.27;99502.25;6341254;22;45366;-61
2022/11/21 11:09:02;;;;;;;;;10.25;8.25;;;;;9.70;67.53;99498.03;6340402;22;46136;-61
2022/11/21 11:11:28;;;;;;;;;6.50;6.00;;;;;9.73;67.35;99491.81;6340656;22;45147;-61
2022/11/21 11:14:02;;;;;;;;;15.75;8.75;;;;;9.75;67.25;99496.09;6339163;22;45228;-61
2022/11/21 11:16:30;;;;;;;;;11.00;8.00;;;;;9.74;67.28;99485.66;6340900;22;45172;-61
2022/11/21 11:19:07;;;;;;;;;7.75;5.00;;;;;9.74;67.33;99478.66;6340068;22;45341;-61
2022/11/21 11:21:39;;;;;;;;;10.00;7.25;;;;;9.80;67.23;99471.50;6338904;22;45723;-61
2022/11/21 11:24:28;;;;;;;;;10.25;8.75;;;;;9.76;67.39;99458.47;6341115;22;45155;-61
2022/11/21 11:27:01;;;;;;;;;12.25;10.50;;;;;9.68;67.27;99447.34;6339087;22;45334;-63
2022/11/21 11:29:30;;;;;;;;;12.75;8.25;;;;;9.74;67.03;99451.56;6338648;22;46881;-61
2022/11/21 11:32:26;;;;;;;;;13.00;7.50;;;;;9.76;67.18;99440.13;6340950;22;45300;-61
2022/11/21 11:34:59;;;;;;;;;8.00;6.25;;;;;9.79;67.14;99433.06;6338269;22;45369;-61
2022/11/21 11:37:37;;;;;;;;;8.00;7.00;;;;;9.78;67.16;99413.81;6342242;22;45261;-61
2022/11/21 11:40:17;;;;;;;;;6.50;6.25;;;;;9.80;67.14;99414.66;6342214;22;46444;-61
2022/11/21 11:48:44;;;;;;;;;7.50;6.25;;;;;9.81;67.09;99387.50;6341189;22;45258;-61
2022/11/21 11:51:26;;;;;;;;;14.75;8.75;;;;;9.85;66.99;99369.88;6366557;22;46277;-61
2022/11/21 11:53:57;;;;;;;;;13.75;12.25;;;;;9.83;66.80;99361.22;6339824;22;45358;-61
2022/11/21 11:56:37;;;;;;;;;13.75;9.50;;;;;9.80;66.79;99351.69;6342023;22;45193;-61
2022/11/21 11:59:08;;;;;;;;;10.00;8.50;;;;;9.77;66.85;99328.16;6338610;22;45290;-61